Main page
METAR-TAF:

METAR-TAF

Airports :

Montpellier–Méditerranée Airport

Montpellier, France

latitude: 43-35N, longitude: 003-58E, elevation: 5 m

Current weather observation

The report was made 20 minutes ago, at 03:30 UTC
Wind 4 kt from the North/Northwest
Temperature 20°C
Humidity 88%
Pressure 1008 hPa
Visibility 10 km or more
no clouds below 1500 m and no cumulonimbus

METAR: LFMT 150330Z AUTO 33004KT CAVOK 20/18 Q1008 NOSIG

Time: 05:50 (03:50 UTC)

Forecast

The report was made 1 hour and 50 minutes ago, at 02:00 UTC
Forecast valid from 15 at 03 UTC to 16 at 03 UTC
Wind 5 kt from variable directions
Visibility 10 km or more
no clouds below 1500 m and no cumulonimbus
Becoming
from 15 at 10 UTC to 15 at 12 UTC
Wind 12 kt from the South
Becoming
from 15 at 18 UTC to 15 at 21 UTC
Wind 4 kt from variable directions

TAF: LFMT 150200Z 1503/1603 VRB05KT CAVOK BECMG 1510/1512 19012KT BECMG 1518/1521 VRB04KT

Weather observations and forecasts of more than 4000 airports (METAR and TAF reports).

The available stations are represented by yellow and red dots on the map.

Hover mouse over dot to see the name of the station.

Then click to see weather observations and forecasts.

To change the map : click on the green buttons with a black cross to zoom in, on the green button with a dash to zoom out, or on the green arrows for adjacent maps.


METAR-TAF: